sensor_id;sensor_type;location;lat;lon;timestamp;temperature;humidity
13389;DHT22;6764;53.250;10.410;2023-11-21T00:01:57;11.10;99.90
13389;DHT22;6764;53.250;10.410;2023-11-21T00:04:23;11.10;99.90
13389;DHT22;6764;53.250;10.410;2023-11-21T00:06:49;11.20;99.90
13389;DHT22;6764;53.250;10.410;2023-11-21T00:09:15;11.00;99.90
13389;DHT22;6764;53.250;10.410;2023-11-21T00:11:41;11.10;99.90
13389;DHT22;6764;53.250;10.410;2023-11-21T00:14:07;11.10;99.90
13389;DHT22;6764;53.250;10.410;2023-11-21T00:16:33;11.10;99.90
13389;DHT22;6764;53.250;10.410;2023-11-21T00:18:59;11.20;99.90
13389;DHT22;6764;53.250;10.410;2023-11-21T00:21:25;11.10;99.90
13389;DHT22;6764;53.250;10.410;2023-11-21T00:23:51;11.00;99.90
13389;DHT22;6764;53.250;10.410;2023-11-21T00:26:16;11.00;99.90
13389;DHT22;6764;53.250;10.410;2023-11-21T00:28:42;10.80;99.90
13389;DHT22;6764;53.250;10.410;2023-11-21T00:31:08;10.60;99.90
13389;DHT22;6764;53.250;10.410;2023-11-21T00:33:33;10.70;99.90
13389;DHT22;6764;53.250;10.410;2023-11-21T00:35:59;10.60;99.90
13389;DHT22;6764;53.250;10.410;2023-11-21T00:38:26;10.50;99.90
13389;DHT22;6764;53.250;10.410;2023-11-21T00:40:52;10.40;99.90
13389;DHT22;6764;53.250;10.410;2023-11-21T00:43:24;10.20;99.90
13389;DHT22;6764;53.250;10.410;2023-11-21T00:45:49;10.30;99.90
13389;DHT22;6764;53.250;10.410;2023-11-21T00:48:15;10.20;99.90
13389;DHT22;6764;53.250;10.410;2023-11-21T00:50:41;10.10;99.90
13389;DHT22;6764;53.250;10.410;2023-11-21T00:53:06;10.20;99.90
13389;DHT22;6764;53.250;10.410;2023-11-21T00:55:33;10.10;99.90
13389;DHT22;6764;53.250;10.410;2023-11-21T00:57:59;10.10;99.90
13389;DHT22;6764;53.250;10.410;2023-11-21T01:00:25;10.00;99.90
13389;DHT22;6764;53.250;10.410;2023-11-21T01:02:51;9.90;99.90
13389;DHT22;6764;53.250;10.410;2023-11-21T01:05:17;9.90;99.90
13389;DHT22;6764;53.250;10.410;2023-11-21T01:07:43;9.80;99.90
13389;DHT22;6764;53.250;10.410;2023-11-21T01:10:08;9.80;99.90
13389;DHT22;6764;53.250;10.410;2023-11-21T01:12:36;9.80;99.90
13389;DHT22;6764;53.250;10.410;2023-11-21T01:15:06;9.80;99.90
13389;DHT22;6764;53.250;10.410;2023-11-21T01:17:33;9.80;99.90
13389;DHT22;6764;53.250;10.410;2023-11-21T01:20:00;9.80;99.90
13389;DHT22;6764;53.250;10.410;2023-11-21T01:22:26;9.80;99.90
13389;DHT22;6764;53.250;10.410;2023-11-21T01:24:54;9.90;99.90
13389;DHT22;6764;53.250;10.410;2023-11-21T01:27:21;9.80;99.90
13389;DHT22;6764;53.250;10.410;2023-11-21T01:29:46;9.70;99.90
13389;DHT22;6764;53.250;10.410;2023-11-21T01:32:12;9.70;99.90
13389;DHT22;6764;53.250;10.410;2023-11-21T01:34:38;9.70;99.90
13389;DHT22;6764;53.250;10.410;2023-11-21T01:37:03;9.70;99.90
13389;DHT22;6764;53.250;10.410;2023-11-21T01:39:31;9.50;99.90
13389;DHT22;6764;53.250;10.410;2023-11-21T01:41:57;9.50;99.90
13389;DHT22;6764;53.250;10.410;2023-11-21T01:44:24;9.50;99.90
13389;DHT22;6764;53.250;10.410;2023-11-21T01:46:50;9.50;99.90
13389;DHT22;6764;53.250;10.410;2023-11-21T01:49:17;9.20;99.90
13389;DHT22;6764;53.250;10.410;2023-11-21T01:51:46;9.20;99.90
13389;DHT22;6764;53.250;10.410;2023-11-21T01:54:14;9.10;99.90
13389;DHT22;6764;53.250;10.410;2023-11-21T01:56:40;9.00;99.90
13389;DHT22;6764;53.250;10.410;2023-11-21T01:59:06;8.90;99.90
13389;DHT22;6764;53.250;10.410;2023-11-21T02:01:33;8.90;99.90
13389;DHT22;6764;53.250;10.410;2023-11-21T02:03:59;8.90;99.90
13389;DHT22;6764;53.250;10.410;2023-11-21T02:06:24;8.90;99.90
13389;DHT22;6764;53.250;10.410;2023-11-21T02:08:51;9.00;99.90
13389;DHT22;6764;53.250;10.410;2023-11-21T02:11:17;8.90;99.90
13389;DHT22;6764;53.250;10.410;2023-11-21T02:13:44;8.90;99.90
13389;DHT22;6764;53.250;10.410;2023-11-21T02:16:11;8.90;99.90
13389;DHT22;6764;53.250;10.410;2023-11-21T02:18:38;8.90;99.90
13389;DHT22;6764;53.250;10.410;2023-11-21T02:21:05;8.90;99.90
13389;DHT22;6764;53.250;10.410;2023-11-21T02:23:30;8.90;99.90
13389;DHT22;6764;53.250;10.410;2023-11-21T02:25:56;8.90;99.90
13389;DHT22;6764;53.250;10.410;2023-11-21T02:28:22;8.80;99.90
13389;DHT22;6764;53.250;10.410;2023-11-21T02:30:52;8.80;99.90
13389;DHT22;6764;53.250;10.410;2023-11-21T02:33:24;8.80;99.90
13389;DHT22;6764;53.250;10.410;2023-11-21T02:35:50;8.80;99.90
13389;DHT22;6764;53.250;10.410;2023-11-21T02:38:23;8.80;99.90
13389;DHT22;6764;53.250;10.410;2023-11-21T02:40:48;8.90;99.90
13389;DHT22;6764;53.250;10.410;2023-11-21T02:43:14;8.80;99.90
13389;DHT22;6764;53.250;10.410;2023-11-21T02:45:40;8.70;99.90
13389;DHT22;6764;53.250;10.410;2023-11-21T02:48:07;8.70;99.90
13389;DHT22;6764;53.250;10.410;2023-11-21T02:50:33;8.60;99.90
13389;DHT22;6764;53.250;10.410;2023-11-21T02:52:58;8.60;99.90
13389;DHT22;6764;53.250;10.410;2023-11-21T02:55:26;8.70;99.90
13389;DHT22;6764;53.250;10.410;2023-11-21T02:57:52;8.80;99.90
13389;DHT22;6764;53.250;10.410;2023-11-21T03:00:17;8.80;99.90
13389;DHT22;6764;53.250;10.410;2023-11-21T03:02:43;8.80;99.90
13389;DHT22;6764;53.250;10.410;2023-11-21T03:05:09;8.70;99.90
13389;DHT22;6764;53.250;10.410;2023-11-21T03:07:37;8.70;99.90
13389;DHT22;6764;53.250;10.410;2023-11-21T03:10:03;8.70;99.90
13389;DHT22;6764;53.250;10.410;2023-11-21T03:12:29;8.70;99.90
13389;DHT22;6764;53.250;10.410;2023-11-21T03:14:55;8.70;99.90
13389;DHT22;6764;53.250;10.410;2023-11-21T03:17:21;8.60;99.90
13389;DHT22;6764;53.250;10.410;2023-11-21T03:19:47;8.70;99.90
13389;DHT22;6764;53.250;10.410;2023-11-21T03:22:12;8.70;99.90
13389;DHT22;6764;53.250;10.410;2023-11-21T03:24:38;8.60;99.90
13389;DHT22;6764;53.250;10.410;2023-11-21T03:27:04;8.60;99.90
13389;DHT22;6764;53.250;10.410;2023-11-21T03:29:30;8.70;99.90
13389;DHT22;6764;53.250;10.410;2023-11-21T03:31:56;8.70;99.90
13389;DHT22;6764;53.250;10.410;2023-11-21T03:34:26;8.70;99.90
13389;DHT22;6764;53.250;10.410;2023-11-21T03:36:52;8.70;99.90
13389;DHT22;6764;53.250;10.410;2023-11-21T03:39:20;8.70;99.90
13389;DHT22;6764;53.250;10.410;2023-11-21T03:41:46;8.70;99.90
13389;DHT22;6764;53.250;10.410;2023-11-21T03:44:11;8.70;99.90
13389;DHT22;6764;53.250;10.410;2023-11-21T03:46:37;8.80;99.90
13389;DHT22;6764;53.250;10.410;2023-11-21T03:49:03;8.60;99.90
13389;DHT22;6764;53.250;10.410;2023-11-21T03:51:28;8.60;99.90
13389;DHT22;6764;53.250;10.410;2023-11-21T03:53:54;8.50;99.90
13389;DHT22;6764;53.250;10.410;2023-11-21T03:56:20;8.50;99.90
13389;DHT22;6764;53.250;10.410;2023-11-21T03:58:48;8.50;99.90
13389;DHT22;6764;53.250;10.410;2023-11-21T04:01:24;8.50;99.90
13389;DHT22;6764;53.250;10.410;2023-11-21T04:03:50;8.40;99.90
13389;DHT22;6764;53.250;10.410;2023-11-21T04:06:16;8.30;99.90
13389;DHT22;6764;53.250;10.410;2023-11-21T04:08:43;8.40;99.90
13389;DHT22;6764;53.250;10.410;2023-11-21T04:11:10;8.50;99.90
13389;DHT22;6764;53.250;10.410;2023-11-21T04:13:40;8.50;99.90
13389;DHT22;6764;53.250;10.410;2023-11-21T04:16:07;8.40;99.90
13389;DHT22;6764;53.250;10.410;2023-11-21T04:18:33;8.30;99.90
13389;DHT22;6764;53.250;10.410;2023-11-21T04:20:59;8.30;99.90
13389;DHT22;6764;53.250;10.410;2023-11-21T04:23:25;8.20;99.90
13389;DHT22;6764;53.250;10.410;2023-11-21T04:25:50;8.10;99.90
13389;DHT22;6764;53.250;10.410;2023-11-21T04:28:16;8.10;99.90
13389;DHT22;6764;53.250;10.410;2023-11-21T04:30:42;8.20;99.90
13389;DHT22;6764;53.250;10.410;2023-11-21T04:33:07;8.20;99.90
13389;DHT22;6764;53.250;10.410;2023-11-21T04:35:33;8.30;99.90
13389;DHT22;6764;53.250;10.410;2023-11-21T04:37:58;8.50;99.90
13389;DHT22;6764;53.250;10.410;2023-11-21T04:40:25;8.50;99.90
13389;DHT22;6764;53.250;10.410;2023-11-21T04:42:52;8.40;99.90
13389;DHT22;6764;53.250;10.410;2023-11-21T04:45:18;8.40;99.90
13389;DHT22;6764;53.250;10.410;2023-11-21T04:47:43;8.50;99.90
13389;DHT22;6764;53.250;10.410;2023-11-21T04:50:09;8.50;99.90
13389;DHT22;6764;53.250;10.410;2023-11-21T04:52:35;8.60;99.90
13389;DHT22;6764;53.250;10.410;2023-11-21T04:55:00;8.70;99.90
13389;DHT22;6764;53.250;10.410;2023-11-21T04:57:27;8.70;99.90
13389;DHT22;6764;53.250;10.410;2023-11-21T04:59:54;8.70;99.90
13389;DHT22;6764;53.250;10.410;2023-11-21T05:02:19;8.70;99.90
13389;DHT22;6764;53.250;10.410;2023-11-21T05:04:47;8.70;99.90
13389;DHT22;6764;53.250;10.410;2023-11-21T05:07:12;8.70;99.90
13389;DHT22;6764;53.250;10.410;2023-11-21T05:09:44;8.70;99.90
13389;DHT22;6764;53.250;10.410;2023-11-21T05:12:12;8.60;99.90
13389;DHT22;6764;53.250;10.410;2023-11-21T05:14:38;8.60;99.90
13389;DHT22;6764;53.250;10.410;2023-11-21T05:17:03;8.60;99.90
13389;DHT22;6764;53.250;10.410;2023-11-21T05:19:29;8.50;99.90
13389;DHT22;6764;53.250;10.410;2023-11-21T05:21:55;8.50;99.90
13389;DHT22;6764;53.250;10.410;2023-11-21T05:24:21;8.40;99.90
13389;DHT22;6764;53.250;10.410;2023-11-21T05:26:46;8.40;99.90
13389;DHT22;6764;53.250;10.410;2023-11-21T05:29:12;8.30;99.90
13389;DHT22;6764;53.250;10.410;2023-11-21T05:31:37;8.20;99.90
13389;DHT22;6764;53.250;10.410;2023-11-21T05:34:04;8.30;99.90
13389;DHT22;6764;53.250;10.410;2023-11-21T05:36:30;8.40;99.90
13389;DHT22;6764;53.250;10.410;2023-11-21T05:38:56;8.30;99.90
13389;DHT22;6764;53.250;10.410;2023-11-21T05:41:22;8.30;99.90
13389;DHT22;6764;53.250;10.410;2023-11-21T05:43:48;8.20;99.90
13389;DHT22;6764;53.250;10.410;2023-11-21T05:46:14;8.30;99.90
13389;DHT22;6764;53.250;10.410;2023-11-21T05:48:40;8.20;99.90
13389;DHT22;6764;53.250;10.410;2023-11-21T05:51:06;8.20;99.90
13389;DHT22;6764;53.250;10.410;2023-11-21T05:53:32;8.20;99.90
13389;DHT22;6764;53.250;10.410;2023-11-21T05:55:57;8.30;99.90
13389;DHT22;6764;53.250;10.410;2023-11-21T05:58:23;8.40;99.90
13389;DHT22;6764;53.250;10.410;2023-11-21T06:00:49;8.30;99.90
13389;DHT22;6764;53.250;10.410;2023-11-21T06:03:14;8.30;99.90
13389;DHT22;6764;53.250;10.410;2023-11-21T06:05:40;8.30;99.90
13389;DHT22;6764;53.250;10.410;2023-11-21T06:08:06;8.30;99.90
13389;DHT22;6764;53.250;10.410;2023-11-21T06:10:32;8.20;99.90
13389;DHT22;6764;53.250;10.410;2023-11-21T06:12:58;8.30;99.90
13389;DHT22;6764;53.250;10.410;2023-11-21T06:15:24;8.30;99.90
13389;DHT22;6764;53.250;10.410;2023-11-21T06:17:50;8.30;99.90
13389;DHT22;6764;53.250;10.410;2023-11-21T06:20:18;8.30;99.90
13389;DHT22;6764;53.250;10.410;2023-11-21T06:22:45;8.30;99.90
13389;DHT22;6764;53.250;10.410;2023-11-21T06:25:12;8.40;99.90
13389;DHT22;6764;53.250;10.410;2023-11-21T06:27:42;8.40;99.90
13389;DHT22;6764;53.250;10.410;2023-11-21T06:30:08;8.30;99.90
13389;DHT22;6764;53.250;10.410;2023-11-21T06:32:36;8.30;99.90
13389;DHT22;6764;53.250;10.410;2023-11-21T06:35:05;8.30;99.90
13389;DHT22;6764;53.250;10.410;2023-11-21T06:37:32;8.20;99.90
13389;DHT22;6764;53.250;10.410;2023-11-21T06:39:59;8.30;99.90
13389;DHT22;6764;53.250;10.410;2023-11-21T06:42:25;8.30;99.90
13389;DHT22;6764;53.250;10.410;2023-11-21T06:44:51;8.30;99.90
13389;DHT22;6764;53.250;10.410;2023-11-21T06:47:22;8.50;99.90
13389;DHT22;6764;53.250;10.410;2023-11-21T06:49:51;8.50;99.90
13389;DHT22;6764;53.250;10.410;2023-11-21T06:52:16;8.50;99.90
13389;DHT22;6764;53.250;10.410;2023-11-21T06:54:42;8.60;99.90
13389;DHT22;6764;53.250;10.410;2023-11-21T06:57:08;8.50;99.90
13389;DHT22;6764;53.250;10.410;2023-11-21T06:59:34;8.50;99.90
13389;DHT22;6764;53.250;10.410;2023-11-21T07:01:59;8.50;99.90
13389;DHT22;6764;53.250;10.410;2023-11-21T07:04:25;8.60;99.90
13389;DHT22;6764;53.250;10.410;2023-11-21T07:06:51;8.60;99.90
13389;DHT22;6764;53.250;10.410;2023-11-21T07:09:17;8.40;99.90
13389;DHT22;6764;53.250;10.410;2023-11-21T07:11:43;8.40;99.90
13389;DHT22;6764;53.250;10.410;2023-11-21T07:14:08;8.40;99.90
13389;DHT22;6764;53.250;10.410;2023-11-21T07:16:37;8.40;99.90
13389;DHT22;6764;53.250;10.410;2023-11-21T07:19:04;8.50;99.90
13389;DHT22;6764;53.250;10.410;2023-11-21T07:21:33;8.50;99.90
13389;DHT22;6764;53.250;10.410;2023-11-21T07:24:00;8.40;99.90
13389;DHT22;6764;53.250;10.410;2023-11-21T07:26:26;8.30;99.90
13389;DHT22;6764;53.250;10.410;2023-11-21T07:28:52;8.50;99.90
13389;DHT22;6764;53.250;10.410;2023-11-21T07:31:18;8.50;99.90
13389;DHT22;6764;53.250;10.410;2023-11-21T07:33:45;8.40;99.90
13389;DHT22;6764;53.250;10.410;2023-11-21T07:36:13;8.50;99.90
13389;DHT22;6764;53.250;10.410;2023-11-21T07:38:39;8.50;99.90
13389;DHT22;6764;53.250;10.410;2023-11-21T07:41:05;8.50;99.90
13389;DHT22;6764;53.250;10.410;2023-11-21T07:43:33;8.50;99.90
13389;DHT22;6764;53.250;10.410;2023-11-21T07:46:03;8.50;99.90
13389;DHT22;6764;53.250;10.410;2023-11-21T07:48:30;8.50;99.90
13389;DHT22;6764;53.250;10.410;2023-11-21T07:50:57;8.50;99.90
13389;DHT22;6764;53.250;10.410;2023-11-21T07:53:27;8.60;99.90
13389;DHT22;6764;53.250;10.410;2023-11-21T07:56:04;8.60;99.90
13389;DHT22;6764;53.250;10.410;2023-11-21T07:58:30;8.50;99.90
13389;DHT22;6764;53.250;10.410;2023-11-21T08:00:59;8.50;99.90
13389;DHT22;6764;53.250;10.410;2023-11-21T08:03:24;8.50;99.90
13389;DHT22;6764;53.250;10.410;2023-11-21T08:05:52;8.40;99.90
13389;DHT22;6764;53.250;10.410;2023-11-21T08:08:17;8.50;99.90
13389;DHT22;6764;53.250;10.410;2023-11-21T08:10:44;8.50;99.90
13389;DHT22;6764;53.250;10.410;2023-11-21T08:13:24;8.60;99.90
13389;DHT22;6764;53.250;10.410;2023-11-21T08:15:50;8.60;99.90
13389;DHT22;6764;53.250;10.410;2023-11-21T08:18:19;8.60;99.90
13389;DHT22;6764;53.250;10.410;2023-11-21T08:20:44;8.60;99.90
13389;DHT22;6764;53.250;10.410;2023-11-21T08:23:14;8.50;99.90
13389;DHT22;6764;53.250;10.410;2023-11-21T08:25:41;8.60;99.90
13389;DHT22;6764;53.250;10.410;2023-11-21T08:28:07;8.70;99.90
13389;DHT22;6764;53.250;10.410;2023-11-21T08:30:33;8.70;99.90
13389;DHT22;6764;53.250;10.410;2023-11-21T08:33:00;8.70;99.90
13389;DHT22;6764;53.250;10.410;2023-11-21T08:35:25;8.70;99.90
13389;DHT22;6764;53.250;10.410;2023-11-21T08:37:52;8.80;99.90
13389;DHT22;6764;53.250;10.410;2023-11-21T08:40:18;8.90;99.90
13389;DHT22;6764;53.250;10.410;2023-11-21T08:42:45;8.80;99.90
13389;DHT22;6764;53.250;10.410;2023-11-21T08:45:11;9.00;99.90
13389;DHT22;6764;53.250;10.410;2023-11-21T08:47:38;9.00;99.90
13389;DHT22;6764;53.250;10.410;2023-11-21T08:50:05;9.10;99.90
13389;DHT22;6764;53.250;10.410;2023-11-21T08:52:33;9.10;99.90
13389;DHT22;6764;53.250;10.410;2023-11-21T08:54:59;9.10;99.90
13389;DHT22;6764;53.250;10.410;2023-11-21T08:57:28;9.20;99.90
13389;DHT22;6764;53.250;10.410;2023-11-21T08:59:54;9.20;99.90
13389;DHT22;6764;53.250;10.410;2023-11-21T09:02:26;9.20;99.90
13389;DHT22;6764;53.250;10.410;2023-11-21T09:04:51;9.20;99.90
13389;DHT22;6764;53.250;10.410;2023-11-21T09:07:21;9.30;99.90
13389;DHT22;6764;53.250;10.410;2023-11-21T09:09:47;9.30;99.90
13389;DHT22;6764;53.250;10.410;2023-11-21T09:12:13;9.40;99.90
13389;DHT22;6764;53.250;10.410;2023-11-21T09:14:39;9.50;99.90
13389;DHT22;6764;53.250;10.410;2023-11-21T09:17:08;9.50;99.90
13389;DHT22;6764;53.250;10.410;2023-11-21T09:19:39;9.50;99.90
13389;DHT22;6764;53.250;10.410;2023-11-21T09:22:05;9.30;99.90
13389;DHT22;6764;53.250;10.410;2023-11-21T09:24:31;9.40;99.90
13389;DHT22;6764;53.250;10.410;2023-11-21T09:26:57;9.40;99.90
13389;DHT22;6764;53.250;10.410;2023-11-21T09:29:23;9.50;99.90
13389;DHT22;6764;53.250;10.410;2023-11-21T09:31:49;9.50;99.90
13389;DHT22;6764;53.250;10.410;2023-11-21T09:34:16;9.40;99.90
13389;DHT22;6764;53.250;10.410;2023-11-21T09:36:45;9.50;99.90
13389;DHT22;6764;53.250;10.410;2023-11-21T09:39:11;9.50;99.90
13389;DHT22;6764;53.250;10.410;2023-11-21T09:41:56;9.60;99.90
13389;DHT22;6764;53.250;10.410;2023-11-21T09:44:35;9.60;99.90
13389;DHT22;6764;53.250;10.410;2023-11-21T09:47:02;9.70;99.90
13389;DHT22;6764;53.250;10.410;2023-11-21T09:49:28;9.60;99.90
13389;DHT22;6764;53.250;10.410;2023-11-21T09:52:01;9.70;99.90
13389;DHT22;6764;53.250;10.410;2023-11-21T09:54:30;9.70;99.90
13389;DHT22;6764;53.250;10.410;2023-11-21T09:56:57;9.70;99.90
13389;DHT22;6764;53.250;10.410;2023-11-21T09:59:25;9.60;99.90
13389;DHT22;6764;53.250;10.410;2023-11-21T10:01:56;9.70;99.90
13389;DHT22;6764;53.250;10.410;2023-11-21T10:04:24;9.70;99.90
13389;DHT22;6764;53.250;10.410;2023-11-21T10:06:50;9.70;99.90
13389;DHT22;6764;53.250;10.410;2023-11-21T10:09:17;9.60;99.90
13389;DHT22;6764;53.250;10.410;2023-11-21T10:11:45;9.60;99.90
13389;DHT22;6764;53.250;10.410;2023-11-21T10:14:11;9.40;99.90
13389;DHT22;6764;53.250;10.410;2023-11-21T10:16:41;9.40;99.90
13389;DHT22;6764;53.250;10.410;2023-11-21T10:19:10;9.50;99.90
13389;DHT22;6764;53.250;10.410;2023-11-21T10:21:37;9.50;99.90
13389;DHT22;6764;53.250;10.410;2023-11-21T10:24:03;9.40;99.90
13389;DHT22;6764;53.250;10.410;2023-11-21T10:26:29;9.20;99.90
13389;DHT22;6764;53.250;10.410;2023-11-21T10:31:23;9.40;99.90
13389;DHT22;6764;53.250;10.410;2023-11-21T10:33:52;9.40;99.90
13389;DHT22;6764;53.250;10.410;2023-11-21T10:36:29;9.50;99.90
13389;DHT22;6764;53.250;10.410;2023-11-21T10:38:54;9.40;99.90
13389;DHT22;6764;53.250;10.410;2023-11-21T10:41:20;9.40;99.90
13389;DHT22;6764;53.250;10.410;2023-11-21T10:43:46;9.30;99.90
13389;DHT22;6764;53.250;10.410;2023-11-21T10:46:13;9.40;99.90
13389;DHT22;6764;53.250;10.410;2023-11-21T10:48:44;9.50;99.90
13389;DHT22;6764;53.250;10.410;2023-11-21T10:51:10;9.40;99.90
13389;DHT22;6764;53.250;10.410;2023-11-21T10:53:42;9.50;99.90
13389;DHT22;6764;53.250;10.410;2023-11-21T10:56:09;9.50;99.90
13389;DHT22;6764;53.250;10.410;2023-11-21T10:58:43;9.70;99.90
13389;DHT22;6764;53.250;10.410;2023-11-21T11:01:09;9.80;99.90
13389;DHT22;6764;53.250;10.410;2023-11-21T11:03:37;10.00;99.90
13389;DHT22;6764;53.250;10.410;2023-11-21T11:06:06;10.00;99.90
13389;DHT22;6764;53.250;10.410;2023-11-21T11:08:37;9.90;99.90
13389;DHT22;6764;53.250;10.410;2023-11-21T11:11:04;9.80;99.90
13389;DHT22;6764;53.250;10.410;2023-11-21T11:13:31;9.80;99.90
13389;DHT22;6764;53.250;10.410;2023-11-21T11:16:00;9.80;99.90
13389;DHT22;6764;53.250;10.410;2023-11-21T11:18:33;9.80;99.90
13389;DHT22;6764;53.250;10.410;2023-11-21T11:21:33;9.80;99.90
13389;DHT22;6764;53.250;10.410;2023-11-21T11:24:13;9.70;99.90
13389;DHT22;6764;53.250;10.410;2023-11-21T11:26:51;9.70;99.90
13389;DHT22;6764;53.250;10.410;2023-11-21T11:37:20;9.60;99.90
13389;DHT22;6764;53.250;10.410;2023-11-21T11:39:49;9.50;99.90
13389;DHT22;6764;53.250;10.410;2023-11-21T11:42:17;9.40;99.90
13389;DHT22;6764;53.250;10.410;2023-11-21T11:47:15;9.60;99.90
13389;DHT22;6764;53.250;10.410;2023-11-21T11:55:15;9.50;99.90
13389;DHT22;6764;53.250;10.410;2023-11-21T11:57:49;9.40;99.90
13389;DHT22;6764;53.250;10.410;2023-11-21T12:00:21;9.40;99.90
13389;DHT22;6764;53.250;10.410;2023-11-21T12:02:58;9.40;99.90
13389;DHT22;6764;53.250;10.410;2023-11-21T12:05:34;9.50;99.90
13389;DHT22;6764;53.250;10.410;2023-11-21T12:08:09;9.40;99.90
13389;DHT22;6764;53.250;10.410;2023-11-21T12:10:38;9.50;99.90
13389;DHT22;6764;53.250;10.410;2023-11-21T12:13:10;9.50;99.90
13389;DHT22;6764;53.250;10.410;2023-11-21T12:15:38;9.50;99.90
13389;DHT22;6764;53.250;10.410;2023-11-21T12:18:06;9.50;99.90
13389;DHT22;6764;53.250;10.410;2023-11-21T12:20:32;9.50;99.90
13389;DHT22;6764;53.250;10.410;2023-11-21T12:23:04;9.50;99.90
13389;DHT22;6764;53.250;10.410;2023-11-21T12:25:31;9.30;99.90
13389;DHT22;6764;53.250;10.410;2023-11-21T12:28:02;9.40;99.90
13389;DHT22;6764;53.250;10.410;2023-11-21T12:30:32;9.40;99.90
13389;DHT22;6764;53.250;10.410;2023-11-21T12:33:00;9.50;99.90
13389;DHT22;6764;53.250;10.410;2023-11-21T12:35:30;9.60;99.90
13389;DHT22;6764;53.250;10.410;2023-11-21T12:37:59;9.40;99.90
13389;DHT22;6764;53.250;10.410;2023-11-21T12:40:28;9.40;99.90
13389;DHT22;6764;53.250;10.410;2023-11-21T12:42:55;9.50;99.90
13389;DHT22;6764;53.250;10.410;2023-11-21T12:45:23;9.30;99.90
13389;DHT22;6764;53.250;10.410;2023-11-21T12:48:01;9.30;99.90
13389;DHT22;6764;53.250;10.410;2023-11-21T12:50:30;9.20;99.90
13389;DHT22;6764;53.250;10.410;2023-11-21T12:53:02;9.10;99.90
13389;DHT22;6764;53.250;10.410;2023-11-21T12:55:34;9.20;99.90
13389;DHT22;6764;53.250;10.410;2023-11-21T12:58:04;9.20;99.90
13389;DHT22;6764;53.250;10.410;2023-11-21T13:00:40;9.30;99.90
13389;DHT22;6764;53.250;10.410;2023-11-21T13:03:09;9.20;99.90
13389;DHT22;6764;53.250;10.410;2023-11-21T13:05:39;9.20;99.90
13389;DHT22;6764;53.250;10.410;2023-11-21T13:08:11;9.20;99.90
13389;DHT22;6764;53.250;10.410;2023-11-21T13:10:43;9.20;99.90
13389;DHT22;6764;53.250;10.410;2023-11-21T13:13:13;9.20;99.90
13389;DHT22;6764;53.250;10.410;2023-11-21T13:15:52;9.20;99.90
13389;DHT22;6764;53.250;10.410;2023-11-21T13:18:19;9.20;99.90
13389;DHT22;6764;53.250;10.410;2023-11-21T13:20:47;9.10;99.90
13389;DHT22;6764;53.250;10.410;2023-11-21T13:23:12;9.10;99.90
13389;DHT22;6764;53.250;10.410;2023-11-21T13:25:39;9.00;99.90
13389;DHT22;6764;53.250;10.410;2023-11-21T13:28:08;9.00;99.90
13389;DHT22;6764;53.250;10.410;2023-11-21T13:30:35;9.10;99.90
13389;DHT22;6764;53.250;10.410;2023-11-21T13:33:05;9.20;99.90
13389;DHT22;6764;53.250;10.410;2023-11-21T13:35:34;9.10;99.90
13389;DHT22;6764;53.250;10.410;2023-11-21T13:38:09;9.20;99.90
13389;DHT22;6764;53.250;10.410;2023-11-21T13:40:36;9.20;99.90
13389;DHT22;6764;53.250;10.410;2023-11-21T13:43:08;9.10;99.90
13389;DHT22;6764;53.250;10.410;2023-11-21T13:45:41;9.10;99.90
13389;DHT22;6764;53.250;10.410;2023-11-21T13:48:08;9.00;99.90
13389;DHT22;6764;53.250;10.410;2023-11-21T13:50:42;9.00;99.90
13389;DHT22;6764;53.250;10.410;2023-11-21T13:53:23;9.00;99.90
13389;DHT22;6764;53.250;10.410;2023-11-21T13:55:50;9.10;99.90
13389;DHT22;6764;53.250;10.410;2023-11-21T13:58:16;8.90;99.90
13389;DHT22;6764;53.250;10.410;2023-11-21T14:00:49;8.80;99.90
13389;DHT22;6764;53.250;10.410;2023-11-21T14:03:22;8.80;99.90
13389;DHT22;6764;53.250;10.410;2023-11-21T14:05:58;8.80;99.90
13389;DHT22;6764;53.250;10.410;2023-11-21T14:08:25;8.80;99.90
13389;DHT22;6764;53.250;10.410;2023-11-21T14:10:54;8.70;99.90
13389;DHT22;6764;53.250;10.410;2023-11-21T14:13:23;8.90;99.90
13389;DHT22;6764;53.250;10.410;2023-11-21T14:15:50;8.90;99.90
13389;DHT22;6764;53.250;10.410;2023-11-21T14:18:26;8.80;99.90
13389;DHT22;6764;53.250;10.410;2023-11-21T14:21:16;8.70;99.90
13389;DHT22;6764;53.250;10.410;2023-11-21T14:23:42;8.60;99.90
13389;DHT22;6764;53.250;10.410;2023-11-21T14:26:08;8.70;99.90
13389;DHT22;6764;53.250;10.410;2023-11-21T14:28:34;8.70;99.90
13389;DHT22;6764;53.250;10.410;2023-11-21T14:31:01;8.60;99.90
13389;DHT22;6764;53.250;10.410;2023-11-21T14:33:28;8.70;99.90
13389;DHT22;6764;53.250;10.410;2023-11-21T14:35:54;8.80;99.90
13389;DHT22;6764;53.250;10.410;2023-11-21T14:38:20;8.90;99.90
13389;DHT22;6764;53.250;10.410;2023-11-21T14:40:45;8.90;99.90
13389;DHT22;6764;53.250;10.410;2023-11-21T14:43:13;8.90;99.90
13389;DHT22;6764;53.250;10.410;2023-11-21T14:45:38;9.00;99.90
13389;DHT22;6764;53.250;10.410;2023-11-21T14:48:04;8.90;99.90
13389;DHT22;6764;53.250;10.410;2023-11-21T14:50:30;8.80;99.90
13389;DHT22;6764;53.250;10.410;2023-11-21T14:53:15;8.70;99.90
13389;DHT22;6764;53.250;10.410;2023-11-21T14:55:41;8.60;99.90
13389;DHT22;6764;53.250;10.410;2023-11-21T14:58:19;8.70;99.90
13389;DHT22;6764;53.250;10.410;2023-11-21T15:01:04;8.70;99.90
13389;DHT22;6764;53.250;10.410;2023-11-21T15:03:30;8.70;99.90
13389;DHT22;6764;53.250;10.410;2023-11-21T15:06:03;8.70;99.90
13389;DHT22;6764;53.250;10.410;2023-11-21T15:08:48;8.80;99.90
13389;DHT22;6764;53.250;10.410;2023-11-21T15:11:15;8.70;99.90
13389;DHT22;6764;53.250;10.410;2023-11-21T15:13:42;8.80;99.90
13389;DHT22;6764;53.250;10.410;2023-11-21T15:16:08;8.80;99.90
13389;DHT22;6764;53.250;10.410;2023-11-21T15:18:37;8.90;99.90
13389;DHT22;6764;53.250;10.410;2023-11-21T15:21:03;8.90;99.90
13389;DHT22;6764;53.250;10.410;2023-11-21T15:23:29;8.70;99.90
13389;DHT22;6764;53.250;10.410;2023-11-21T15:25:56;8.80;99.90
13389;DHT22;6764;53.250;10.410;2023-11-21T15:28:23;8.80;99.90
13389;DHT22;6764;53.250;10.410;2023-11-21T15:30:50;8.80;99.90
13389;DHT22;6764;53.250;10.410;2023-11-21T15:33:16;8.70;99.90
13389;DHT22;6764;53.250;10.410;2023-11-21T15:35:43;8.80;99.90
13389;DHT22;6764;53.250;10.410;2023-11-21T15:38:08;8.80;99.90
13389;DHT22;6764;53.250;10.410;2023-11-21T15:40:34;8.90;99.90
13389;DHT22;6764;53.250;10.410;2023-11-21T15:43:00;8.80;99.90
13389;DHT22;6764;53.250;10.410;2023-11-21T15:45:28;8.80;99.90
13389;DHT22;6764;53.250;10.410;2023-11-21T15:47:54;8.80;99.90
13389;DHT22;6764;53.250;10.410;2023-11-21T15:50:20;8.70;99.90
13389;DHT22;6764;53.250;10.410;2023-11-21T15:52:46;8.70;99.90
13389;DHT22;6764;53.250;10.410;2023-11-21T15:55:12;8.60;99.90
13389;DHT22;6764;53.250;10.410;2023-11-21T15:57:38;8.60;99.90
13389;DHT22;6764;53.250;10.410;2023-11-21T16:00:05;8.70;99.90
13389;DHT22;6764;53.250;10.410;2023-11-21T16:02:36;8.60;99.90
13389;DHT22;6764;53.250;10.410;2023-11-21T16:05:04;8.50;99.90
13389;DHT22;6764;53.250;10.410;2023-11-21T16:07:30;8.50;99.90